createdAt,value
2022-10-21T00:02:13.063Z,100679.16
2022-10-21T00:04:46.695Z,100685.97
2022-10-21T00:07:16.065Z,100675.47
2022-10-21T00:09:57.212Z,100688.84
2022-10-21T00:12:32.243Z,100692.31
2022-10-21T00:15:10.924Z,100664.47
2022-10-21T00:17:54.168Z,100654.97
2022-10-21T00:20:27.694Z,100678.38
2022-10-21T00:23:03.807Z,100679.91
2022-10-21T00:25:30.924Z,100672.69
2022-10-21T00:28:06.495Z,100661.59
2022-10-21T00:30:45.253Z,100658.84
2022-10-21T00:33:13.217Z,100662.25
2022-10-21T00:35:45.271Z,100672.78
2022-10-21T00:38:15.359Z,100675.53
2022-10-21T00:40:42.667Z,100672.69
2022-10-21T00:43:16.018Z,100675.19
2022-10-21T00:45:43.870Z,100688.34
2022-10-21T00:48:36.786Z,100688.25
2022-10-21T00:51:10.594Z,100688.50
2022-10-21T00:53:43.603Z,100696.22
2022-10-21T00:56:17.253Z,100693.56
2022-10-21T00:58:47.899Z,100696.13
2022-10-21T01:01:21.479Z,100691.69
2022-10-21T01:03:52.663Z,100681.13
2022-10-21T01:06:21.121Z,100673.72
2022-10-21T01:08:49.637Z,100680.38
2022-10-21T01:11:21.002Z,100657.63
2022-10-21T01:14:19.098Z,100665.69
2022-10-21T01:17:20.563Z,100667.56
2022-10-21T01:20:16.263Z,100654.31
2022-10-21T01:22:55.949Z,100638.38
2022-10-21T01:25:57.452Z,100628.53
2022-10-21T01:28:50.362Z,100618.88
2022-10-21T01:31:49.380Z,100623.41
2022-10-21T01:34:39.126Z,100632.28
2022-10-21T01:37:11.155Z,100638.19
2022-10-21T01:40:27.298Z,100633.16
2022-10-21T01:42:59.913Z,100632.13
2022-10-21T01:45:32.009Z,100621.63
2022-10-21T01:48:13.213Z,100628.53
2022-10-21T01:51:06.450Z,100633.44
2022-10-21T01:54:04.012Z,100611.63
2022-10-21T01:56:52.051Z,100622.94
2022-10-21T01:59:24.152Z,100620.19
2022-10-21T02:02:03.920Z,100618.19
2022-10-21T02:04:38.009Z,100619.03
2022-10-21T02:07:09.625Z,100602.19
2022-10-21T02:09:41.644Z,100600.28
2022-10-21T02:12:11.429Z,100587.19
2022-10-21T02:14:45.811Z,100595.06
2022-10-21T02:17:22.290Z,100588.53
2022-10-21T02:19:54.702Z,100586.81
2022-10-21T02:22:28.367Z,100580.56
2022-10-21T02:25:31.203Z,100569.38
2022-10-21T02:28:06.996Z,100562.56
2022-10-21T02:30:56.038Z,100563.41
2022-10-21T02:33:50.506Z,100555.53
2022-10-21T02:36:55.571Z,100549.28
2022-10-21T02:39:35.423Z,100541.13
2022-10-21T02:42:07.166Z,100547.94
2022-10-21T02:44:34.843Z,100549.66
2022-10-21T02:47:06.995Z,100558.56
2022-10-21T02:49:37.323Z,100554.97
2022-10-21T02:52:11.470Z,100549.56
2022-10-21T02:54:40.957Z,100542.47
2022-10-21T02:57:17.739Z,100535.53
2022-10-21T02:59:47.328Z,100532.13
2022-10-21T03:02:14.517Z,100535.59
2022-10-21T03:04:41.539Z,100533.72
2022-10-21T03:07:08.588Z,100520.56
2022-10-21T03:09:37.152Z,100526.69
2022-10-21T03:12:09.122Z,100509.16
2022-10-21T03:14:35.835Z,100505.56
2022-10-21T03:17:02.539Z,100506.22
2022-10-21T03:19:30.445Z,100493.09
2022-10-21T03:21:57.181Z,100493.78
2022-10-21T03:24:28.467Z,100505.28
2022-10-21T03:26:56.468Z,100499.66
2022-10-21T03:29:26.924Z,100497.22
2022-10-21T03:31:53.880Z,100497.22
2022-10-21T03:34:23.975Z,100492.97
2022-10-21T03:36:50.929Z,100505.09
2022-10-21T03:39:17.815Z,100501.56
2022-10-21T03:41:44.513Z,100494.25
2022-10-21T03:44:11.696Z,100505.53
2022-10-21T03:46:38.473Z,100499.09
2022-10-21T03:49:08.528Z,100493.88
2022-10-21T03:51:42.031Z,100492.38
2022-10-21T03:54:08.867Z,100484.69
2022-10-21T03:56:35.581Z,100483.63
2022-10-21T03:59:02.272Z,100493.22
2022-10-21T04:01:29.078Z,100481.66
2022-10-21T04:03:55.993Z,100491.31
2022-10-21T04:06:23.001Z,100501.94
2022-10-21T04:08:49.809Z,100501.19
2022-10-21T04:11:16.712Z,100496.63
2022-10-21T04:13:51.222Z,100505.44
2022-10-21T04:16:20.119Z,100501.94
2022-10-21T04:36:55.332Z,100441.75
2022-10-21T04:39:52.610Z,100430.97
2022-10-21T04:42:19.764Z,100413.00
2022-10-21T04:45:04.349Z,100410.25
2022-10-21T04:48:04.860Z,100405.81
2022-10-21T04:50:39.331Z,100398.91
2022-10-21T04:53:10.895Z,100407.81
2022-10-21T04:55:43.352Z,100402.28
2022-10-21T05:00:58.849Z,100397.19
2022-10-21T05:03:34.913Z,100410.25
2022-10-21T05:06:24.397Z,100407.25
2022-10-21T05:09:02.119Z,100391.41
2022-10-21T05:15:09.795Z,100393.72
2022-10-21T05:17:46.912Z,100390.13
2022-10-21T05:20:42.089Z,100383.00
2022-10-21T05:23:18.080Z,100375.25
2022-10-21T05:25:52.071Z,100375.03
2022-10-21T05:28:26.455Z,100356.47
2022-10-21T05:31:06.365Z,100349.34
2022-10-21T05:33:35.622Z,100345.97
2022-10-21T05:36:12.147Z,100354.66
2022-10-21T05:38:39.027Z,100361.78
2022-10-21T05:41:10.698Z,100375.59
2022-10-21T05:43:38.593Z,100370.84
2022-10-21T05:46:09.743Z,100356.81
2022-10-21T05:48:49.881Z,100361.72
2022-10-21T05:51:26.707Z,100355.97
2022-10-21T05:53:57.863Z,100350.16
2022-10-21T05:56:30.177Z,100342.38
2022-10-21T05:59:05.516Z,100342.28
2022-10-21T06:01:39.701Z,100352.16
2022-10-21T06:04:16.787Z,100346.84
2022-10-21T06:06:43.979Z,100349.19
2022-10-21T06:09:16.552Z,100347.41
2022-10-21T06:11:45.882Z,100345.47
2022-10-21T06:14:15.140Z,100347.94
2022-10-21T06:19:32.915Z,100355.16
2022-10-21T06:21:59.858Z,100359.41
2022-10-21T06:24:30.848Z,100359.00
2022-10-21T06:26:59.994Z,100363.16
2022-10-21T06:29:32.017Z,100350.63
2022-10-21T06:31:58.859Z,100348.72
2022-10-21T06:34:35.418Z,100349.56
2022-10-21T06:37:14.227Z,100353.91
2022-10-21T06:39:49.564Z,100351.81
2022-10-21T06:42:25.817Z,100347.16
2022-10-21T06:45:00.562Z,100345.44
2022-10-21T06:47:29.543Z,100350.44
2022-10-21T06:50:32.620Z,100343.13
2022-10-21T06:53:01.968Z,100352.56
2022-10-21T07:32:39.441Z,100372.78
2022-10-21T07:35:13.305Z,100376.84
2022-10-21T07:40:31.393Z,100384.91
2022-10-21T07:43:18.629Z,100390.47
2022-10-21T07:46:07.072Z,100382.78
2022-10-21T07:49:20.117Z,100375.88
2022-10-21T07:51:49.756Z,100379.06
2022-10-21T07:54:32.844Z,100378.31
2022-10-21T07:57:06.163Z,100376.09
2022-10-21T07:59:35.683Z,100379.59
2022-10-21T08:02:15.057Z,100375.13
2022-10-21T08:04:52.349Z,100378.66
2022-10-21T08:07:24.094Z,100379.25
2022-10-21T08:09:57.926Z,100388.75
2022-10-21T08:12:36.327Z,100378.00
2022-10-21T08:18:18.114Z,100374.16
2022-10-21T08:20:46.371Z,100371.69
2022-10-21T08:23:15.814Z,100368.34
2022-10-21T08:26:04.417Z,100368.78
2022-10-21T08:28:36.705Z,100377.00
2022-10-21T08:31:32.087Z,100376.44
2022-10-21T08:34:26.075Z,100360.69
2022-10-21T08:36:55.833Z,100363.19
2022-10-21T08:39:25.348Z,100359.75
2022-10-21T08:44:55.366Z,100363.72
2022-10-21T08:47:47.299Z,100360.13
2022-10-21T08:50:32.002Z,100353.97
2022-10-21T08:53:08.898Z,100349.50
2022-10-21T08:58:47.614Z,100336.19
2022-10-21T09:01:32.978Z,100326.28
2022-10-21T10:14:33.370Z,100291.88
2022-10-21T10:17:21.469Z,100300.84
2022-10-21T10:20:20.446Z,100295.16
2022-10-21T10:23:08.371Z,100296.03
2022-10-21T10:25:37.941Z,100296.88
2022-10-21T10:28:10.776Z,100289.34
2022-10-21T10:30:41.661Z,100285.56
2022-10-21T10:33:14.283Z,100278.25
2022-10-21T10:35:48.308Z,100282.00
2022-10-21T10:38:42.643Z,100279.16
2022-10-21T10:44:29.799Z,100278.41
2022-10-21T10:44:40.005Z,100252.97
2022-10-21T10:47:11.295Z,100251.38
2022-10-21T10:49:54.208Z,100248.22
2022-10-21T10:52:24.347Z,100245.00
2022-10-21T11:35:14.421Z,100205.56
2022-10-21T11:47:13.264Z,100192.16
2022-10-21T11:50:16.386Z,100199.63
2022-10-21T12:06:17.516Z,100192.31
2022-10-21T12:08:59.960Z,100202.88
2022-10-21T12:12:04.534Z,100208.94
2022-10-21T12:33:45.626Z,100193.88
2022-10-21T12:36:16.781Z,100192.88
2022-10-21T12:39:08.439Z,100193.44
2022-10-21T12:42:51.304Z,100188.81
2022-10-21T12:49:43.638Z,100190.34
2022-10-21T12:52:21.378Z,100191.16
2022-10-21T12:55:11.953Z,100192.88
2022-10-21T12:57:44.067Z,100192.47
2022-10-21T13:00:32.640Z,100196.53
2022-10-21T13:03:22.239Z,100183.72
2022-10-21T13:06:58.000Z,100191.88
2022-10-21T13:10:01.589Z,100195.13
2022-10-21T13:12:44.727Z,100186.97
2022-10-21T13:15:52.122Z,100194.00
2022-10-21T13:18:53.684Z,100190.31
2022-10-21T13:21:29.674Z,100194.44
2022-10-21T13:24:10.348Z,100184.13
2022-10-21T13:26:58.883Z,100164.28
2022-10-21T13:29:41.261Z,100169.63
2022-10-21T13:32:14.146Z,100174.72
2022-10-21T13:34:53.430Z,100170.19
2022-10-21T13:37:57.267Z,100161.88
2022-10-21T13:40:28.108Z,100163.97
2022-10-21T13:43:01.001Z,100166.38
2022-10-21T13:45:48.767Z,100163.13
2022-10-21T13:48:16.483Z,100167.91
2022-10-21T13:50:46.171Z,100160.28
2022-10-21T13:53:21.804Z,100161.00
2022-10-21T13:55:59.306Z,100177.56
2022-10-21T13:58:27.221Z,100178.00
2022-10-21T14:00:57.889Z,100177.97
2022-10-21T16:05:43.679Z,100119.56
2022-10-21T16:19:33.373Z,100114.63
2022-10-21T16:22:37.161Z,100110.13
2022-10-21T16:47:54.437Z,100123.84
2022-10-21T16:50:56.539Z,100123.47
2022-10-21T16:53:23.927Z,100129.00
2022-10-21T16:55:50.555Z,100128.81
2022-10-21T16:58:22.319Z,100140.31
2022-10-21T17:00:50.234Z,100137.75
2022-10-21T17:03:16.938Z,100141.25
2022-10-21T17:05:43.619Z,100142.94
2022-10-21T17:08:10.499Z,100142.94
2022-10-21T17:10:37.250Z,100143.53
2022-10-21T17:13:04.047Z,100143.91
2022-10-21T17:15:30.911Z,100146.84
2022-10-21T17:17:59.278Z,100146.72
2022-10-21T17:20:32.903Z,100145.47
2022-10-21T17:22:59.987Z,100151.88
2022-10-21T17:25:30.512Z,100150.69
2022-10-21T17:28:19.938Z,100156.28
2022-10-21T17:30:46.401Z,100152.34
2022-10-21T17:33:19.010Z,100148.78
2022-10-21T17:35:53.181Z,100149.91
2022-10-21T17:39:00.580Z,100150.53
2022-10-21T17:47:57.345Z,100170.72
2022-10-21T17:53:27.803Z,100166.56
2022-10-21T17:56:00.019Z,100163.19
2022-10-21T17:58:27.153Z,100168.84
2022-10-21T18:01:23.302Z,100163.78
2022-10-21T18:13:59.789Z,100154.78
2022-10-21T18:16:45.096Z,100146.78
2022-10-21T18:22:15.309Z,100149.34
2022-10-21T18:26:34.991Z,100150.44
2022-10-21T18:39:26.263Z,100145.09
2022-10-21T18:42:30.709Z,100148.72
2022-10-21T18:48:51.622Z,100154.53
2022-10-21T18:51:55.353Z,100154.28
2022-10-21T18:54:22.202Z,100151.72
2022-10-21T18:56:48.881Z,100158.50
2022-10-21T18:59:15.607Z,100164.69
2022-10-21T19:01:42.361Z,100161.31
2022-10-21T19:04:09.174Z,100167.34
2022-10-21T19:06:45.431Z,100165.41
2022-10-21T19:09:20.752Z,100162.75
2022-10-21T19:11:47.925Z,100167.25
2022-10-21T19:14:16.137Z,100175.97
2022-10-21T19:16:43.766Z,100163.56
2022-10-21T19:19:10.671Z,100176.56
2022-10-21T19:21:37.328Z,100174.34
2022-10-21T19:24:04.509Z,100167.16
2022-10-21T19:26:32.559Z,100162.66
2022-10-21T19:29:05.991Z,100160.84
2022-10-21T19:31:36.281Z,100161.56
2022-10-21T19:34:05.860Z,100163.03
2022-10-21T19:36:32.519Z,100162.88
2022-10-21T19:38:59.169Z,100162.00
2022-10-21T19:41:25.854Z,100161.78
2022-10-21T19:43:56.414Z,100170.63
2022-10-21T19:46:25.530Z,100175.97
2022-10-21T19:48:53.238Z,100175.19
2022-10-21T19:51:22.422Z,100178.44
2022-10-21T19:53:50.265Z,100176.88
2022-10-21T19:56:20.901Z,100181.25
2022-10-21T19:58:50.949Z,100189.38
2022-10-21T20:01:21.220Z,100189.13
2022-10-21T20:03:48.951Z,100197.28
2022-10-21T20:06:21.845Z,100199.81
2022-10-21T20:08:48.613Z,100203.47
2022-10-21T20:11:17.776Z,100205.03
2022-10-21T20:13:45.269Z,100202.34
2022-10-21T20:16:21.303Z,100200.38
2022-10-21T20:18:48.464Z,100204.63
2022-10-21T20:21:15.273Z,100197.34
2022-10-21T20:23:42.400Z,100200.59
2022-10-21T20:26:09.278Z,100186.00
2022-10-21T20:28:36.652Z,100186.97
2022-10-21T20:31:04.666Z,100180.78
2022-10-21T20:33:33.326Z,100179.66
2022-10-21T20:36:04.615Z,100167.00
2022-10-21T20:38:32.194Z,100164.63
2022-10-21T20:41:06.440Z,100167.28
2022-10-21T20:43:39.809Z,100168.41
2022-10-21T20:46:09.062Z,100161.94
2022-10-21T20:48:36.894Z,100164.19
2022-10-21T20:51:11.584Z,100175.63
2022-10-21T20:53:40.330Z,100180.09
2022-10-21T20:56:07.494Z,100189.25
2022-10-21T20:58:35.902Z,100182.91
2022-10-21T21:01:10.111Z,100183.63
2022-10-21T21:03:39.245Z,100179.13
2022-10-21T21:06:25.680Z,100183.63
2022-10-21T21:10:43.963Z,100171.53
2022-10-21T21:29:17.656Z,100193.13
